sensor_id;sensor_type;location;lat;lon;timestamp;P1;durP1;ratioP1;P2;durP2;ratioP2
21202;SDS011;10759;51.982;9.232;2023-08-20T00:00:22;21.27;;;19.38;;
21202;SDS011;10759;51.982;9.232;2023-08-20T00:02:54;20.83;;;18.65;;
21202;SDS011;10759;51.982;9.232;2023-08-20T00:05:26;20.45;;;18.92;;
21202;SDS011;10759;51.982;9.232;2023-08-20T00:07:54;19.73;;;18.10;;
21202;SDS011;10759;51.982;9.232;2023-08-20T00:10:22;22.30;;;20.20;;
21202;SDS011;10759;51.982;9.232;2023-08-20T00:12:50;21.63;;;19.95;;
21202;SDS011;10759;51.982;9.232;2023-08-20T00:15:18;23.80;;;21.85;;
21202;SDS011;10759;51.982;9.232;2023-08-20T00:17:49;22.10;;;20.30;;
21202;SDS011;10759;51.982;9.232;2023-08-20T00:20:18;20.45;;;19.02;;
21202;SDS011;10759;51.982;9.232;2023-08-20T00:22:48;22.35;;;20.35;;
21202;SDS011;10759;51.982;9.232;2023-08-20T00:25:16;21.65;;;19.88;;
21202;SDS011;10759;51.982;9.232;2023-08-20T00:27:45;21.15;;;19.75;;
21202;SDS011;10759;51.982;9.232;2023-08-20T00:30:13;22.33;;;20.48;;
21202;SDS011;10759;51.982;9.232;2023-08-20T00:32:41;22.13;;;20.38;;
21202;SDS011;10759;51.982;9.232;2023-08-20T00:35:09;23.00;;;21.15;;
21202;SDS011;10759;51.982;9.232;2023-08-20T00:37:38;22.80;;;20.98;;
21202;SDS011;10759;51.982;9.232;2023-08-20T00:40:09;22.50;;;20.92;;
21202;SDS011;10759;51.982;9.232;2023-08-20T00:42:38;26.40;;;24.05;;
21202;SDS011;10759;51.982;9.232;2023-08-20T00:45:07;28.08;;;25.90;;
21202;SDS011;10759;51.982;9.232;2023-08-20T00:47:35;27.63;;;25.20;;
21202;SDS011;10759;51.982;9.232;2023-08-20T00:50:05;28.40;;;25.63;;
21202;SDS011;10759;51.982;9.232;2023-08-20T00:52:34;28.60;;;26.10;;
21202;SDS011;10759;51.982;9.232;2023-08-20T00:55:06;29.50;;;26.73;;
21202;SDS011;10759;51.982;9.232;2023-08-20T00:57:36;26.30;;;24.10;;
21202;SDS011;10759;51.982;9.232;2023-08-20T01:00:05;26.45;;;24.08;;
21202;SDS011;10759;51.982;9.232;2023-08-20T01:02:35;23.38;;;21.20;;
21202;SDS011;10759;51.982;9.232;2023-08-20T01:05:04;23.02;;;21.05;;
21202;SDS011;10759;51.982;9.232;2023-08-20T01:07:36;21.02;;;19.20;;
21202;SDS011;10759;51.982;9.232;2023-08-20T01:10:14;21.15;;;19.35;;
21202;SDS011;10759;51.982;9.232;2023-08-20T01:12:46;20.20;;;18.70;;
21202;SDS011;10759;51.982;9.232;2023-08-20T01:15:15;19.30;;;17.98;;
21202;SDS011;10759;51.982;9.232;2023-08-20T01:17:43;19.55;;;17.95;;
21202;SDS011;10759;51.982;9.232;2023-08-20T01:20:12;20.05;;;17.73;;
21202;SDS011;10759;51.982;9.232;2023-08-20T01:22:48;22.08;;;20.27;;
21202;SDS011;10759;51.982;9.232;2023-08-20T01:25:32;20.65;;;18.92;;
21202;SDS011;10759;51.982;9.232;2023-08-20T01:28:21;19.98;;;18.40;;
21202;SDS011;10759;51.982;9.232;2023-08-20T01:30:51;20.83;;;18.70;;
21202;SDS011;10759;51.982;9.232;2023-08-20T01:35:50;29.15;;;25.30;;
21202;SDS011;10759;51.982;9.232;2023-08-20T01:38:19;26.80;;;24.33;;
21202;SDS011;10759;51.982;9.232;2023-08-20T01:40:46;29.33;;;26.60;;
21202;SDS011;10759;51.982;9.232;2023-08-20T01:43:14;29.67;;;27.00;;
21202;SDS011;10759;51.982;9.232;2023-08-20T01:45:44;26.08;;;23.88;;
21202;SDS011;10759;51.982;9.232;2023-08-20T01:48:14;22.13;;;20.20;;
21202;SDS011;10759;51.982;9.232;2023-08-20T01:50:42;24.77;;;22.52;;
21202;SDS011;10759;51.982;9.232;2023-08-20T01:53:10;24.05;;;21.67;;
21202;SDS011;10759;51.982;9.232;2023-08-20T01:55:38;23.13;;;20.70;;
21202;SDS011;10759;51.982;9.232;2023-08-20T01:58:06;20.58;;;18.58;;
21202;SDS011;10759;51.982;9.232;2023-08-20T02:00:34;19.33;;;17.80;;
21202;SDS011;10759;51.982;9.232;2023-08-20T02:03:03;19.75;;;17.95;;
21202;SDS011;10759;51.982;9.232;2023-08-20T02:05:32;18.92;;;17.35;;
21202;SDS011;10759;51.982;9.232;2023-08-20T02:08:00;18.13;;;16.27;;
21202;SDS011;10759;51.982;9.232;2023-08-20T02:10:31;18.63;;;17.02;;
21202;SDS011;10759;51.982;9.232;2023-08-20T02:12:59;17.27;;;15.75;;
21202;SDS011;10759;51.982;9.232;2023-08-20T02:15:26;17.10;;;15.40;;
21202;SDS011;10759;51.982;9.232;2023-08-20T02:17:56;14.90;;;13.60;;
21202;SDS011;10759;51.982;9.232;2023-08-20T02:20:25;14.75;;;13.25;;
21202;SDS011;10759;51.982;9.232;2023-08-20T02:22:54;15.60;;;13.95;;
21202;SDS011;10759;51.982;9.232;2023-08-20T02:25:22;14.70;;;13.57;;
21202;SDS011;10759;51.982;9.232;2023-08-20T02:27:52;15.50;;;14.07;;
21202;SDS011;10759;51.982;9.232;2023-08-20T02:30:20;14.43;;;13.20;;
21202;SDS011;10759;51.982;9.232;2023-08-20T02:32:48;12.95;;;11.95;;
21202;SDS011;10759;51.982;9.232;2023-08-20T02:35:16;12.63;;;11.63;;
21202;SDS011;10759;51.982;9.232;2023-08-20T02:37:49;13.63;;;12.45;;
21202;SDS011;10759;51.982;9.232;2023-08-20T02:40:17;12.50;;;11.40;;
21202;SDS011;10759;51.982;9.232;2023-08-20T02:42:45;12.05;;;10.95;;
21202;SDS011;10759;51.982;9.232;2023-08-20T02:45:13;13.38;;;12.07;;
21202;SDS011;10759;51.982;9.232;2023-08-20T02:47:41;12.68;;;11.50;;
21202;SDS011;10759;51.982;9.232;2023-08-20T02:50:09;12.85;;;11.60;;
21202;SDS011;10759;51.982;9.232;2023-08-20T02:52:36;12.45;;;11.30;;
21202;SDS011;10759;51.982;9.232;2023-08-20T02:55:06;13.95;;;12.55;;
21202;SDS011;10759;51.982;9.232;2023-08-20T02:57:34;12.07;;;10.85;;
21202;SDS011;10759;51.982;9.232;2023-08-20T03:00:03;13.25;;;11.90;;
21202;SDS011;10759;51.982;9.232;2023-08-20T03:02:32;13.33;;;10.03;;
21202;SDS011;10759;51.982;9.232;2023-08-20T03:05:00;13.70;;;10.75;;
21202;SDS011;10759;51.982;9.232;2023-08-20T03:07:28;15.95;;;10.45;;
21202;SDS011;10759;51.982;9.232;2023-08-20T03:09:56;11.13;;;10.23;;
21202;SDS011;10759;51.982;9.232;2023-08-20T03:12:25;11.57;;;10.27;;
21202;SDS011;10759;51.982;9.232;2023-08-20T03:14:53;10.17;;;9.17;;
21202;SDS011;10759;51.982;9.232;2023-08-20T03:17:20;10.50;;;9.32;;
21202;SDS011;10759;51.982;9.232;2023-08-20T03:19:55;12.55;;;9.38;;
21202;SDS011;10759;51.982;9.232;2023-08-20T03:22:24;9.93;;;9.02;;
21202;SDS011;10759;51.982;9.232;2023-08-20T03:24:53;9.65;;;8.85;;
21202;SDS011;10759;51.982;9.232;2023-08-20T03:27:21;12.60;;;8.68;;
21202;SDS011;10759;51.982;9.232;2023-08-20T03:29:51;8.55;;;7.75;;
21202;SDS011;10759;51.982;9.232;2023-08-20T03:32:19;10.30;;;8.75;;
21202;SDS011;10759;51.982;9.232;2023-08-20T03:34:48;9.57;;;8.57;;
21202;SDS011;10759;51.982;9.232;2023-08-20T03:37:17;11.20;;;10.07;;
21202;SDS011;10759;51.982;9.232;2023-08-20T03:39:45;10.45;;;9.32;;
21202;SDS011;10759;51.982;9.232;2023-08-20T03:42:13;10.82;;;9.82;;
21202;SDS011;10759;51.982;9.232;2023-08-20T03:44:41;11.45;;;9.43;;
21202;SDS011;10759;51.982;9.232;2023-08-20T03:47:10;9.80;;;9.00;;
21202;SDS011;10759;51.982;9.232;2023-08-20T03:49:39;9.95;;;9.02;;
21202;SDS011;10759;51.982;9.232;2023-08-20T03:52:06;11.88;;;9.35;;
21202;SDS011;10759;51.982;9.232;2023-08-20T03:54:35;13.02;;;8.43;;
21202;SDS011;10759;51.982;9.232;2023-08-20T03:57:03;10.13;;;9.30;;
21202;SDS011;10759;51.982;9.232;2023-08-20T03:59:31;9.65;;;8.27;;
21202;SDS011;10759;51.982;9.232;2023-08-20T04:01:59;12.55;;;8.73;;
21202;SDS011;10759;51.982;9.232;2023-08-20T04:04:28;10.38;;;8.65;;
21202;SDS011;10759;51.982;9.232;2023-08-20T04:06:57;9.63;;;8.65;;
21202;SDS011;10759;51.982;9.232;2023-08-20T04:09:25;8.85;;;8.10;;
21202;SDS011;10759;51.982;9.232;2023-08-20T04:11:53;10.32;;;9.07;;
21202;SDS011;10759;51.982;9.232;2023-08-20T04:14:21;10.82;;;9.73;;
21202;SDS011;10759;51.982;9.232;2023-08-20T04:16:49;11.70;;;9.32;;
21202;SDS011;10759;51.982;9.232;2023-08-20T04:19:16;8.77;;;7.80;;
21202;SDS011;10759;51.982;9.232;2023-08-20T04:21:46;8.40;;;7.60;;
21202;SDS011;10759;51.982;9.232;2023-08-20T04:24:15;8.10;;;7.45;;
21202;SDS011;10759;51.982;9.232;2023-08-20T04:26:43;8.13;;;7.45;;
21202;SDS011;10759;51.982;9.232;2023-08-20T04:29:13;8.50;;;7.53;;
21202;SDS011;10759;51.982;9.232;2023-08-20T04:31:42;7.88;;;7.18;;
21202;SDS011;10759;51.982;9.232;2023-08-20T04:34:09;8.77;;;7.72;;
21202;SDS011;10759;51.982;9.232;2023-08-20T04:36:43;12.77;;;11.77;;
21202;SDS011;10759;51.982;9.232;2023-08-20T04:39:12;10.55;;;9.65;;
21202;SDS011;10759;51.982;9.232;2023-08-20T04:41:44;10.18;;;8.93;;
21202;SDS011;10759;51.982;9.232;2023-08-20T04:44:15;10.15;;;9.15;;
21202;SDS011;10759;51.982;9.232;2023-08-20T04:46:43;10.25;;;9.43;;
21202;SDS011;10759;51.982;9.232;2023-08-20T04:49:12;11.50;;;9.20;;
21202;SDS011;10759;51.982;9.232;2023-08-20T04:51:40;11.77;;;10.57;;
21202;SDS011;10759;51.982;9.232;2023-08-20T04:54:07;12.55;;;11.40;;
21202;SDS011;10759;51.982;9.232;2023-08-20T04:56:37;12.20;;;11.10;;
21202;SDS011;10759;51.982;9.232;2023-08-20T04:59:05;11.47;;;10.07;;
21202;SDS011;10759;51.982;9.232;2023-08-20T05:01:55;10.65;;;9.70;;
21202;SDS011;10759;51.982;9.232;2023-08-20T05:04:36;11.73;;;10.75;;
21202;SDS011;10759;51.982;9.232;2023-08-20T05:07:04;13.57;;;12.23;;
21202;SDS011;10759;51.982;9.232;2023-08-20T05:09:32;12.18;;;11.00;;
21202;SDS011;10759;51.982;9.232;2023-08-20T05:12:02;10.07;;;9.27;;
21202;SDS011;10759;51.982;9.232;2023-08-20T05:14:32;11.77;;;10.73;;
21202;SDS011;10759;51.982;9.232;2023-08-20T05:17:00;9.93;;;8.93;;
21202;SDS011;10759;51.982;9.232;2023-08-20T05:19:29;10.45;;;9.65;;
21202;SDS011;10759;51.982;9.232;2023-08-20T05:21:56;10.63;;;9.45;;
21202;SDS011;10759;51.982;9.232;2023-08-20T05:24:28;11.43;;;10.43;;
21202;SDS011;10759;51.982;9.232;2023-08-20T05:27:07;11.35;;;10.35;;
21202;SDS011;10759;51.982;9.232;2023-08-20T05:29:37;10.40;;;9.50;;
21202;SDS011;10759;51.982;9.232;2023-08-20T05:32:05;11.10;;;10.05;;
21202;SDS011;10759;51.982;9.232;2023-08-20T05:34:33;14.40;;;10.60;;
21202;SDS011;10759;51.982;9.232;2023-08-20T05:37:02;11.90;;;10.77;;
21202;SDS011;10759;51.982;9.232;2023-08-20T05:39:35;13.20;;;11.98;;
21202;SDS011;10759;51.982;9.232;2023-08-20T05:42:04;12.38;;;11.45;;
21202;SDS011;10759;51.982;9.232;2023-08-20T05:44:34;13.27;;;12.15;;
21202;SDS011;10759;51.982;9.232;2023-08-20T05:47:02;13.57;;;12.50;;
21202;SDS011;10759;51.982;9.232;2023-08-20T05:49:32;12.02;;;10.77;;
21202;SDS011;10759;51.982;9.232;2023-08-20T05:52:00;12.27;;;10.98;;
21202;SDS011;10759;51.982;9.232;2023-08-20T05:54:29;11.88;;;10.68;;
21202;SDS011;10759;51.982;9.232;2023-08-20T05:56:57;11.57;;;10.57;;
21202;SDS011;10759;51.982;9.232;2023-08-20T05:59:26;11.25;;;10.07;;
21202;SDS011;10759;51.982;9.232;2023-08-20T06:01:55;9.75;;;9.00;;
21202;SDS011;10759;51.982;9.232;2023-08-20T06:04:23;9.80;;;8.90;;
21202;SDS011;10759;51.982;9.232;2023-08-20T06:06:51;9.45;;;8.07;;
21202;SDS011;10759;51.982;9.232;2023-08-20T06:09:19;8.35;;;6.22;;
21202;SDS011;10759;51.982;9.232;2023-08-20T06:11:47;7.40;;;6.68;;
21202;SDS011;10759;51.982;9.232;2023-08-20T06:14:15;7.07;;;6.38;;
21202;SDS011;10759;51.982;9.232;2023-08-20T06:16:43;6.03;;;5.45;;
21202;SDS011;10759;51.982;9.232;2023-08-20T06:19:13;6.60;;;5.90;;
21202;SDS011;10759;51.982;9.232;2023-08-20T06:21:40;6.50;;;5.47;;
21202;SDS011;10759;51.982;9.232;2023-08-20T06:24:08;5.22;;;4.72;;
21202;SDS011;10759;51.982;9.232;2023-08-20T06:26:36;6.97;;;5.20;;
21202;SDS011;10759;51.982;9.232;2023-08-20T06:29:04;7.07;;;5.13;;
21202;SDS011;10759;51.982;9.232;2023-08-20T06:31:32;6.53;;;5.28;;
21202;SDS011;10759;51.982;9.232;2023-08-20T06:34:00;7.88;;;5.72;;
21202;SDS011;10759;51.982;9.232;2023-08-20T06:36:30;4.70;;;4.22;;
21202;SDS011;10759;51.982;9.232;2023-08-20T06:38:57;6.33;;;4.77;;
21202;SDS011;10759;51.982;9.232;2023-08-20T06:41:25;6.70;;;5.50;;
21202;SDS011;10759;51.982;9.232;2023-08-20T06:43:54;7.10;;;4.45;;
21202;SDS011;10759;51.982;9.232;2023-08-20T06:46:21;5.95;;;4.63;;
21202;SDS011;10759;51.982;9.232;2023-08-20T06:48:49;5.07;;;4.57;;
21202;SDS011;10759;51.982;9.232;2023-08-20T06:51:19;6.22;;;4.88;;
21202;SDS011;10759;51.982;9.232;2023-08-20T06:53:49;6.18;;;4.70;;
21202;SDS011;10759;51.982;9.232;2023-08-20T06:56:17;4.43;;;3.40;;
21202;SDS011;10759;51.982;9.232;2023-08-20T06:58:45;4.75;;;4.28;;
21202;SDS011;10759;51.982;9.232;2023-08-20T07:01:14;5.60;;;3.72;;
21202;SDS011;10759;51.982;9.232;2023-08-20T07:03:42;5.40;;;4.10;;
21202;SDS011;10759;51.982;9.232;2023-08-20T07:06:11;4.35;;;3.83;;
21202;SDS011;10759;51.982;9.232;2023-08-20T07:08:40;5.05;;;3.97;;
21202;SDS011;10759;51.982;9.232;2023-08-20T07:11:10;4.32;;;3.88;;
21202;SDS011;10759;51.982;9.232;2023-08-20T07:13:38;7.70;;;3.80;;
21202;SDS011;10759;51.982;9.232;2023-08-20T07:16:05;4.78;;;3.70;;
21202;SDS011;10759;51.982;9.232;2023-08-20T07:18:33;7.07;;;3.90;;
21202;SDS011;10759;51.982;9.232;2023-08-20T07:21:01;6.35;;;3.17;;
21202;SDS011;10759;51.982;9.232;2023-08-20T07:23:29;3.58;;;3.22;;
21202;SDS011;10759;51.982;9.232;2023-08-20T07:26:04;4.43;;;3.03;;
21202;SDS011;10759;51.982;9.232;2023-08-20T07:28:34;4.57;;;3.42;;
21202;SDS011;10759;51.982;9.232;2023-08-20T07:31:20;5.03;;;4.05;;
21202;SDS011;10759;51.982;9.232;2023-08-20T07:33:48;5.60;;;4.05;;
21202;SDS011;10759;51.982;9.232;2023-08-20T07:36:17;4.97;;;3.67;;
21202;SDS011;10759;51.982;9.232;2023-08-20T07:38:45;6.60;;;3.50;;
21202;SDS011;10759;51.982;9.232;2023-08-20T07:41:13;5.45;;;3.83;;
21202;SDS011;10759;51.982;9.232;2023-08-20T07:43:42;4.80;;;3.47;;
21202;SDS011;10759;51.982;9.232;2023-08-20T07:46:10;6.43;;;3.45;;
21202;SDS011;10759;51.982;9.232;2023-08-20T07:48:39;4.63;;;3.42;;
21202;SDS011;10759;51.982;9.232;2023-08-20T07:51:07;5.03;;;3.47;;
21202;SDS011;10759;51.982;9.232;2023-08-20T07:53:35;4.32;;;3.40;;
21202;SDS011;10759;51.982;9.232;2023-08-20T07:56:03;7.82;;;4.32;;
21202;SDS011;10759;51.982;9.232;2023-08-20T07:58:31;5.15;;;4.65;;
21202;SDS011;10759;51.982;9.232;2023-08-20T08:01:00;6.07;;;4.13;;
21202;SDS011;10759;51.982;9.232;2023-08-20T08:03:29;4.43;;;4.03;;
21202;SDS011;10759;51.982;9.232;2023-08-20T08:05:57;7.57;;;4.28;;
21202;SDS011;10759;51.982;9.232;2023-08-20T08:08:25;5.03;;;4.50;;
21202;SDS011;10759;51.982;9.232;2023-08-20T08:10:53;6.35;;;4.95;;
21202;SDS011;10759;51.982;9.232;2023-08-20T08:13:22;5.75;;;4.90;;
21202;SDS011;10759;51.982;9.232;2023-08-20T08:15:50;4.68;;;4.22;;
21202;SDS011;10759;51.982;9.232;2023-08-20T08:18:20;6.53;;;5.30;;
21202;SDS011;10759;51.982;9.232;2023-08-20T08:20:48;7.18;;;4.97;;
21202;SDS011;10759;51.982;9.232;2023-08-20T08:23:16;5.75;;;5.05;;
21202;SDS011;10759;51.982;9.232;2023-08-20T08:25:44;6.15;;;5.60;;
21202;SDS011;10759;51.982;9.232;2023-08-20T08:28:12;6.97;;;6.00;;
21202;SDS011;10759;51.982;9.232;2023-08-20T08:30:40;6.00;;;5.28;;
21202;SDS011;10759;51.982;9.232;2023-08-20T08:33:08;6.18;;;5.57;;
21202;SDS011;10759;51.982;9.232;2023-08-20T08:35:37;7.93;;;5.60;;
21202;SDS011;10759;51.982;9.232;2023-08-20T08:38:05;6.68;;;5.22;;
21202;SDS011;10759;51.982;9.232;2023-08-20T08:40:33;7.05;;;6.40;;
21202;SDS011;10759;51.982;9.232;2023-08-20T08:43:01;5.95;;;5.43;;
21202;SDS011;10759;51.982;9.232;2023-08-20T08:45:29;7.78;;;6.78;;
21202;SDS011;10759;51.982;9.232;2023-08-20T08:48:00;6.97;;;6.18;;
21202;SDS011;10759;51.982;9.232;2023-08-20T08:50:30;6.40;;;5.80;;
21202;SDS011;10759;51.982;9.232;2023-08-20T08:53:00;6.10;;;5.60;;
21202;SDS011;10759;51.982;9.232;2023-08-20T08:55:29;7.50;;;6.80;;
21202;SDS011;10759;51.982;9.232;2023-08-20T08:57:57;7.75;;;6.95;;
21202;SDS011;10759;51.982;9.232;2023-08-20T09:00:24;9.00;;;8.18;;
21202;SDS011;10759;51.982;9.232;2023-08-20T09:02:52;9.55;;;8.57;;
21202;SDS011;10759;51.982;9.232;2023-08-20T09:05:20;9.65;;;8.90;;
21202;SDS011;10759;51.982;9.232;2023-08-20T09:07:49;11.48;;;8.93;;
21202;SDS011;10759;51.982;9.232;2023-08-20T09:10:26;8.35;;;7.68;;
21202;SDS011;10759;51.982;9.232;2023-08-20T09:12:54;10.77;;;9.55;;
21202;SDS011;10759;51.982;9.232;2023-08-20T09:15:31;11.18;;;10.15;;
21202;SDS011;10759;51.982;9.232;2023-08-20T09:18:02;8.90;;;8.02;;
21202;SDS011;10759;51.982;9.232;2023-08-20T09:20:33;8.25;;;7.35;;
21202;SDS011;10759;51.982;9.232;2023-08-20T09:23:02;8.48;;;7.65;;
21202;SDS011;10759;51.982;9.232;2023-08-20T09:25:31;8.98;;;8.27;;
21202;SDS011;10759;51.982;9.232;2023-08-20T09:28:01;10.05;;;9.15;;
21202;SDS011;10759;51.982;9.232;2023-08-20T09:30:30;12.07;;;10.95;;
21202;SDS011;10759;51.982;9.232;2023-08-20T09:33:03;10.65;;;9.85;;
21202;SDS011;10759;51.982;9.232;2023-08-20T09:35:32;11.35;;;10.45;;
21202;SDS011;10759;51.982;9.232;2023-08-20T09:37:59;12.20;;;11.38;;
21202;SDS011;10759;51.982;9.232;2023-08-20T09:40:28;10.95;;;10.00;;
21202;SDS011;10759;51.982;9.232;2023-08-20T09:42:57;10.55;;;9.57;;
21202;SDS011;10759;51.982;9.232;2023-08-20T09:45:25;9.88;;;8.93;;
21202;SDS011;10759;51.982;9.232;2023-08-20T09:47:55;9.88;;;9.07;;
21202;SDS011;10759;51.982;9.232;2023-08-20T09:50:26;10.00;;;9.00;;
21202;SDS011;10759;51.982;9.232;2023-08-20T09:52:56;10.00;;;9.20;;
21202;SDS011;10759;51.982;9.232;2023-08-20T09:55:28;10.15;;;9.35;;
21202;SDS011;10759;51.982;9.232;2023-08-20T09:58:01;8.60;;;7.90;;
21202;SDS011;10759;51.982;9.232;2023-08-20T10:00:30;8.63;;;7.97;;
21202;SDS011;10759;51.982;9.232;2023-08-20T10:02:59;8.00;;;7.40;;
21202;SDS011;10759;51.982;9.232;2023-08-20T10:05:27;7.55;;;6.85;;
21202;SDS011;10759;51.982;9.232;2023-08-20T10:07:55;7.15;;;6.60;;
21202;SDS011;10759;51.982;9.232;2023-08-20T10:12:53;7.10;;;6.53;;
21202;SDS011;10759;51.982;9.232;2023-08-20T10:15:24;6.53;;;5.93;;
21202;SDS011;10759;51.982;9.232;2023-08-20T10:17:55;6.88;;;6.38;;
21202;SDS011;10759;51.982;9.232;2023-08-20T10:20:25;7.22;;;6.57;;
21202;SDS011;10759;51.982;9.232;2023-08-20T10:22:59;5.63;;;5.22;;
21202;SDS011;10759;51.982;9.232;2023-08-20T10:25:29;5.88;;;5.43;;
21202;SDS011;10759;51.982;9.232;2023-08-20T10:28:10;7.40;;;6.90;;
21202;SDS011;10759;51.982;9.232;2023-08-20T10:33:33;7.57;;;6.93;;
21202;SDS011;10759;51.982;9.232;2023-08-20T10:36:09;7.03;;;6.53;;
21202;SDS011;10759;51.982;9.232;2023-08-20T10:38:41;6.40;;;5.93;;
21202;SDS011;10759;51.982;9.232;2023-08-20T10:41:08;6.93;;;6.43;;
21202;SDS011;10759;51.982;9.232;2023-08-20T10:43:37;7.80;;;7.18;;
21202;SDS011;10759;51.982;9.232;2023-08-20T10:46:07;7.43;;;6.72;;
21202;SDS011;10759;51.982;9.232;2023-08-20T10:48:41;7.78;;;7.07;;
21202;SDS011;10759;51.982;9.232;2023-08-20T10:51:11;7.72;;;7.00;;
21202;SDS011;10759;51.982;9.232;2023-08-20T10:53:40;7.63;;;7.03;;
21202;SDS011;10759;51.982;9.232;2023-08-20T10:56:13;7.70;;;7.05;;
21202;SDS011;10759;51.982;9.232;2023-08-20T10:58:43;9.23;;;7.35;;
21202;SDS011;10759;51.982;9.232;2023-08-20T11:01:14;7.32;;;6.82;;
21202;SDS011;10759;51.982;9.232;2023-08-20T11:03:43;7.80;;;7.30;;
21202;SDS011;10759;51.982;9.232;2023-08-20T11:06:12;8.98;;;8.27;;
21202;SDS011;10759;51.982;9.232;2023-08-20T11:08:40;8.05;;;7.45;;
21202;SDS011;10759;51.982;9.232;2023-08-20T11:11:09;8.77;;;7.93;;
21202;SDS011;10759;51.982;9.232;2023-08-20T11:13:38;7.72;;;7.22;;
21202;SDS011;10759;51.982;9.232;2023-08-20T11:16:06;7.60;;;7.10;;
21202;SDS011;10759;51.982;9.232;2023-08-20T11:18:36;8.02;;;7.38;;
21202;SDS011;10759;51.982;9.232;2023-08-20T11:21:04;8.13;;;7.57;;
21202;SDS011;10759;51.982;9.232;2023-08-20T11:23:32;7.65;;;7.03;;
21202;SDS011;10759;51.982;9.232;2023-08-20T11:26:00;7.18;;;6.65;;
21202;SDS011;10759;51.982;9.232;2023-08-20T11:28:29;7.80;;;6.95;;
21202;SDS011;10759;51.982;9.232;2023-08-20T11:30:56;8.93;;;8.05;;
21202;SDS011;10759;51.982;9.232;2023-08-20T11:33:24;8.35;;;7.75;;
21202;SDS011;10759;51.982;9.232;2023-08-20T11:35:55;7.30;;;6.80;;
21202;SDS011;10759;51.982;9.232;2023-08-20T11:38:24;7.82;;;7.13;;
21202;SDS011;10759;51.982;9.232;2023-08-20T11:40:52;8.77;;;7.90;;
21202;SDS011;10759;51.982;9.232;2023-08-20T11:43:21;7.65;;;7.05;;
21202;SDS011;10759;51.982;9.232;2023-08-20T11:45:49;7.35;;;6.85;;
21202;SDS011;10759;51.982;9.232;2023-08-20T11:48:17;8.18;;;7.13;;
21202;SDS011;10759;51.982;9.232;2023-08-20T11:50:45;7.22;;;6.40;;
21202;SDS011;10759;51.982;9.232;2023-08-20T11:53:14;8.15;;;7.38;;
21202;SDS011;10759;51.982;9.232;2023-08-20T11:55:42;7.38;;;6.88;;
21202;SDS011;10759;51.982;9.232;2023-08-20T11:58:11;8.10;;;7.30;;
21202;SDS011;10759;51.982;9.232;2023-08-20T12:03:18;7.43;;;6.82;;
21202;SDS011;10759;51.982;9.232;2023-08-20T12:05:46;7.40;;;6.80;;
21202;SDS011;10759;51.982;9.232;2023-08-20T12:08:16;7.13;;;6.63;;
21202;SDS011;10759;51.982;9.232;2023-08-20T12:10:44;7.28;;;6.78;;
21202;SDS011;10759;51.982;9.232;2023-08-20T12:13:12;7.95;;;7.25;;
21202;SDS011;10759;51.982;9.232;2023-08-20T12:15:41;7.85;;;7.15;;
21202;SDS011;10759;51.982;9.232;2023-08-20T12:18:09;13.52;;;7.28;;
21202;SDS011;10759;51.982;9.232;2023-08-20T12:20:37;7.97;;;7.38;;
21202;SDS011;10759;51.982;9.232;2023-08-20T12:23:05;8.05;;;7.25;;
21202;SDS011;10759;51.982;9.232;2023-08-20T12:25:36;7.53;;;6.90;;
21202;SDS011;10759;51.982;9.232;2023-08-20T12:28:04;7.32;;;6.68;;
21202;SDS011;10759;51.982;9.232;2023-08-20T12:30:34;7.72;;;6.78;;
21202;SDS011;10759;51.982;9.232;2023-08-20T12:33:05;7.95;;;7.38;;
21202;SDS011;10759;51.982;9.232;2023-08-20T12:35:34;7.57;;;6.88;;
21202;SDS011;10759;51.982;9.232;2023-08-20T12:38:02;7.28;;;6.68;;
21202;SDS011;10759;51.982;9.232;2023-08-20T12:40:31;6.45;;;6.05;;
21202;SDS011;10759;51.982;9.232;2023-08-20T12:43:01;7.70;;;6.93;;
21202;SDS011;10759;51.982;9.232;2023-08-20T12:47:57;8.20;;;7.15;;
21202;SDS011;10759;51.982;9.232;2023-08-20T12:50:28;7.13;;;6.63;;
21202;SDS011;10759;51.982;9.232;2023-08-20T12:52:56;7.70;;;7.00;;
21202;SDS011;10759;51.982;9.232;2023-08-20T12:55:24;7.47;;;6.70;;
21202;SDS011;10759;51.982;9.232;2023-08-20T12:57:53;7.40;;;6.70;;
21202;SDS011;10759;51.982;9.232;2023-08-20T13:00:24;7.05;;;6.55;;
21202;SDS011;10759;51.982;9.232;2023-08-20T13:02:53;7.30;;;6.80;;
21202;SDS011;10759;51.982;9.232;2023-08-20T13:05:23;7.18;;;6.68;;
21202;SDS011;10759;51.982;9.232;2023-08-20T13:07:52;7.65;;;7.05;;
21202;SDS011;10759;51.982;9.232;2023-08-20T13:10:21;6.83;;;6.33;;
21202;SDS011;10759;51.982;9.232;2023-08-20T13:12:51;7.50;;;6.80;;
21202;SDS011;10759;51.982;9.232;2023-08-20T13:15:21;7.70;;;7.20;;
21202;SDS011;10759;51.982;9.232;2023-08-20T13:17:53;7.03;;;6.55;;
21202;SDS011;10759;51.982;9.232;2023-08-20T13:20:22;7.30;;;6.70;;
21202;SDS011;10759;51.982;9.232;2023-08-20T13:22:51;7.67;;;7.13;;
21202;SDS011;10759;51.982;9.232;2023-08-20T13:25:20;7.68;;;7.07;;
21202;SDS011;10759;51.982;9.232;2023-08-20T13:27:49;7.70;;;7.10;;
21202;SDS011;10759;51.982;9.232;2023-08-20T13:30:18;7.07;;;6.57;;
21202;SDS011;10759;51.982;9.232;2023-08-20T13:32:46;7.63;;;7.10;;
21202;SDS011;10759;51.982;9.232;2023-08-20T13:35:15;7.03;;;6.53;;
21202;SDS011;10759;51.982;9.232;2023-08-20T13:37:44;8.27;;;7.68;;
21202;SDS011;10759;51.982;9.232;2023-08-20T13:40:13;7.07;;;6.60;;
21202;SDS011;10759;51.982;9.232;2023-08-20T13:42:41;7.45;;;6.95;;
21202;SDS011;10759;51.982;9.232;2023-08-20T13:45:09;7.03;;;6.53;;
21202;SDS011;10759;51.982;9.232;2023-08-20T13:47:38;8.55;;;7.90;;
21202;SDS011;10759;51.982;9.232;2023-08-20T13:50:06;7.20;;;6.70;;
21202;SDS011;10759;51.982;9.232;2023-08-20T13:52:36;7.82;;;7.30;;
21202;SDS011;10759;51.982;9.232;2023-08-20T13:55:05;6.88;;;6.38;;
21202;SDS011;10759;51.982;9.232;2023-08-20T13:57:34;6.75;;;6.25;;
21202;SDS011;10759;51.982;9.232;2023-08-20T14:00:03;7.63;;;6.97;;
21202;SDS011;10759;51.982;9.232;2023-08-20T14:02:36;9.52;;;6.50;;
21202;SDS011;10759;51.982;9.232;2023-08-20T14:05:05;7.78;;;7.07;;
21202;SDS011;10759;51.982;9.232;2023-08-20T14:07:33;7.07;;;6.57;;
21202;SDS011;10759;51.982;9.232;2023-08-20T14:10:05;7.82;;;7.30;;
21202;SDS011;10759;51.982;9.232;2023-08-20T14:12:34;7.32;;;6.75;;
21202;SDS011;10759;51.982;9.232;2023-08-20T14:15:06;7.55;;;6.90;;
21202;SDS011;10759;51.982;9.232;2023-08-20T14:20:04;8.15;;;7.45;;
21202;SDS011;10759;51.982;9.232;2023-08-20T14:22:33;7.45;;;6.95;;
21202;SDS011;10759;51.982;9.232;2023-08-20T14:25:06;8.00;;;7.20;;
21202;SDS011;10759;51.982;9.232;2023-08-20T14:27:35;7.45;;;6.70;;
21202;SDS011;10759;51.982;9.232;2023-08-20T14:30:03;8.52;;;7.68;;
21202;SDS011;10759;51.982;9.232;2023-08-20T14:35:06;7.32;;;6.82;;
21202;SDS011;10759;51.982;9.232;2023-08-20T14:37:34;8.85;;;7.65;;
21202;SDS011;10759;51.982;9.232;2023-08-20T14:40:03;7.93;;;7.35;;
21202;SDS011;10759;51.982;9.232;2023-08-20T14:42:36;9.00;;;8.30;;
21202;SDS011;10759;51.982;9.232;2023-08-20T14:45:05;8.07;;;7.38;;
21202;SDS011;10759;51.982;9.232;2023-08-20T14:47:33;7.70;;;7.10;;
21202;SDS011;10759;51.982;9.232;2023-08-20T14:50:02;7.88;;;7.18;;
21202;SDS011;10759;51.982;9.232;2023-08-20T14:52:30;7.75;;;7.05;;
21202;SDS011;10759;51.982;9.232;2023-08-20T14:54:58;8.63;;;7.85;;
21202;SDS011;10759;51.982;9.232;2023-08-20T14:57:28;7.93;;;7.22;;
21202;SDS011;10759;51.982;9.232;2023-08-20T15:00:15;8.15;;;7.55;;
21202;SDS011;10759;51.982;9.232;2023-08-20T15:02:44;9.35;;;7.15;;
21202;SDS011;10759;51.982;9.232;2023-08-20T15:05:12;7.88;;;7.38;;
21202;SDS011;10759;51.982;9.232;2023-08-20T15:07:40;8.10;;;7.30;;